Time;durP1;ratioP1;P1;durP2;ratioP2;P2;SDS_P1;SDS_P2;PMS_P1;PMS_P2;Temp;Humidity;BMP_temperature;BMP_pressure;BME280_temperature;BME280_humidity;BME280_pressure;Samples;Min_cycle;Max_cycle;Signal;HPM_P1;HPM_P2
2022/03/03 00:01:24;;;;;;;20.50;14.63;;;;;;;5.06;82.97;99271.59;5073529;28;20224;-85
2022/03/03 00:03:51;;;;;;;19.07;13.97;;;;;;;5.07;82.37;99270.75;5073544;28;20668;-84
2022/03/03 00:06:18;;;;;;;19.60;13.87;;;;;;;5.05;83.39;99267.34;5073601;28;20188;-84
2022/03/03 00:08:46;;;;;;;23.07;14.67;;;;;;;5.06;83.57;99269.03;5073177;28;20200;-84
2022/03/03 00:11:13;;;;;;;19.03;14.03;;;;;;;4.83;83.57;99223.84;5073671;28;20296;-83
2022/03/03 00:13:41;;;;;;;19.00;14.97;;;;;;;4.98;83.78;99262.25;5073944;28;20235;-85
2022/03/03 00:16:08;;;;;;;22.10;14.87;;;;;;;5.07;83.24;99268.16;5074677;28;20192;-85
2022/03/03 00:18:35;;;;;;;21.50;15.00;;;;;;;4.92;84.02;99268.31;5075504;28;20639;-83
2022/03/03 00:21:03;;;;;;;20.00;14.47;;;;;;;4.92;84.17;99263.19;5087245;28;20223;-84
2022/03/03 00:23:30;;;;;;;22.80;15.07;;;;;;;4.86;84.89;99247.78;5087145;28;20184;-84
2022/03/03 00:25:57;;;;;;;23.63;15.23;;;;;;;4.61;84.87;99207.78;5090352;28;20226;-84
2022/03/03 00:28:24;;;;;;;22.30;15.20;;;;;;;4.88;84.96;99243.50;5084678;28;20207;-85
2022/03/03 00:30:53;;;;;;;22.30;14.90;;;;;;;4.94;83.79;99240.88;5074517;28;20192;-84
2022/03/03 00:33:20;;;;;;;25.80;15.80;;;;;;;4.78;84.36;99228.16;5074081;28;20220;-86
2022/03/03 00:35:47;;;;;;;29.93;14.97;;;;;;;4.81;84.36;99241.00;5073789;28;20199;-85
2022/03/03 00:38:14;;;;;;;17.70;14.37;;;;;;;4.56;84.27;99210.41;5073245;28;20219;-85
2022/03/03 00:40:41;;;;;;;21.17;14.63;;;;;;;4.83;83.97;99247.00;5072593;28;20203;-84
2022/03/03 00:43:08;;;;;;;22.83;14.73;;;;;;;4.70;83.80;99230.84;5073756;28;20200;-84
2022/03/03 00:45:35;;;;;;;19.70;13.80;;;;;;;4.88;82.38;99245.22;5073085;28;20283;-84
2022/03/03 00:48:04;;;;;;;19.53;13.67;;;;;;;4.99;82.79;99248.53;5073474;28;20292;-85
2022/03/03 00:50:32;;;;;;;18.77;13.90;;;;;;;4.90;82.20;99228.03;5073574;28;20587;-85
2022/03/03 00:52:59;;;;;;;19.93;14.10;;;;;;;4.86;81.86;99223.78;5072274;28;20219;-85
2022/03/03 00:55:26;;;;;;;17.27;13.03;;;;;;;4.55;82.39;99172.72;5072829;28;20215;-85
2022/03/03 00:57:53;;;;;;;17.97;14.27;;;;;;;4.99;81.92;99245.94;5073078;28;20712;-85
2022/03/03 01:00:20;;;;;;;17.93;13.97;;;;;;;4.83;82.46;99231.56;5072745;28;20279;-83
2022/03/03 01:02:48;;;;;;;18.17;13.03;;;;;;;4.97;82.28;99240.81;5072547;28;20203;-85
2022/03/03 01:05:16;;;;;;;18.10;13.50;;;;;;;4.70;81.26;99195.69;5072696;28;20200;-85
2022/03/03 01:07:44;;;;;;;20.13;13.20;;;;;;;4.69;82.06;99195.72;5072943;28;20214;-85
2022/03/03 01:10:11;;;;;;;17.37;13.60;;;;;;;4.90;81.71;99240.91;5072562;28;20197;-85
2022/03/03 01:12:39;;;;;;;16.23;12.93;;;;;;;4.56;82.63;99196.69;5072882;28;20203;-84
2022/03/03 01:15:09;;;;;;;18.07;13.00;;;;;;;4.86;82.38;99234.94;5072345;28;20192;-83
2022/03/03 01:17:37;;;;;;;18.30;12.67;;;;;;;4.82;82.48;99232.44;5072728;28;20287;-84
2022/03/03 01:20:05;;;;;;;14.93;12.17;;;;;;;4.88;81.91;99233.19;5072388;28;20199;-85
2022/03/03 01:22:33;;;;;;;17.10;13.20;;;;;;;4.67;82.30;99211.13;5072851;28;20223;-84
2022/03/03 01:25:00;;;;;;;14.80;12.47;;;;;;;4.78;82.41;99231.59;5072928;28;20203;-84
2022/03/03 01:27:27;;;;;;;22.60;13.10;;;;;;;4.56;82.61;99201.84;5072629;28;20196;-84
2022/03/03 01:29:54;;;;;;;16.53;12.30;;;;;;;4.72;82.40;99223.97;5073163;28;20196;-85
2022/03/03 01:32:21;;;;;;;18.27;11.93;;;;;;;4.60;82.01;99211.22;5072503;28;20203;-85
2022/03/03 01:34:48;;;;;;;15.47;12.77;;;;;;;4.74;82.55;99228.19;5072287;28;20220;-85
2022/03/03 01:37:15;;;;;;;18.43;11.90;;;;;;;4.87;81.94;99230.66;5071992;28;20568;-86
2022/03/03 01:39:43;;;;;;;18.63;12.20;;;;;;;4.90;81.98;99234.03;5072346;28;20192;-85
2022/03/03 01:42:10;;;;;;;15.97;11.70;;;;;;;4.95;81.64;99227.16;5071767;28;20272;-86
2022/03/03 01:44:42;;;;;;;15.73;12.03;;;;;;;4.97;81.49;99227.97;5071855;28;20188;-85
2022/03/03 01:47:16;;;;;;;14.17;11.40;;;;;;;4.82;81.03;99202.44;5072546;28;20188;-85
2022/03/03 01:49:43;;;;;;;15.37;11.67;;;;;;;4.98;81.05;99234.81;5072058;28;20208;-86
2022/03/03 01:52:10;;;;;;;12.67;11.13;;;;;;;5.03;80.92;99230.47;5072534;28;20654;-84
2022/03/03 01:54:37;;;;;;;17.03;12.03;;;;;;;4.90;81.42;99228.91;5072017;28;20220;-84
2022/03/03 01:57:06;;;;;;;18.07;12.27;;;;;;;4.86;81.52;99211.78;5072449;28;20627;-85
2022/03/03 01:59:33;;;;;;;14.03;11.03;;;;;;;4.87;81.83;99222.94;5072257;28;20201;-84
2022/03/03 02:02:01;;;;;;;15.47;12.30;;;;;;;4.82;81.88;99212.72;5072333;28;20275;-84
2022/03/03 02:04:29;;;;;;;14.80;11.10;;;;;;;4.74;81.72;99188.78;5071612;28;20188;-84
2022/03/03 02:06:56;;;;;;;15.80;12.23;;;;;;;4.88;81.24;99224.63;5072588;28;20200;-84
2022/03/03 02:09:23;;;;;;;15.07;11.77;;;;;;;4.84;82.13;99220.41;5072246;28;20294;-84
2022/03/03 02:11:50;;;;;;;16.07;12.87;;;;;;;4.89;81.89;99227.19;5072386;28;20204;-85
2022/03/03 02:14:19;;;;;;;14.17;10.70;;;;;;;4.95;81.66;99227.16;5071705;28;20229;-85
2022/03/03 02:16:46;;;;;;;14.23;11.63;;;;;;;4.97;81.46;99230.53;5072104;28;20206;-84
2022/03/03 02:19:17;;;;;;;16.40;12.10;;;;;;;4.86;82.08;99223.78;5072408;28;20204;-85
2022/03/03 02:21:46;;;;;;;16.93;12.00;;;;;;;4.69;82.35;99188.84;5071141;28;20296;-77
2022/03/03 02:24:14;;;;;;;15.47;11.93;;;;;;;4.87;81.86;99210.94;5070867;28;20199;-77
2022/03/03 02:26:41;;;;;;;13.83;11.37;;;;;;;4.83;82.66;99217.00;5071286;28;20261;-77
2022/03/03 02:29:08;;;;;;;15.50;12.30;;;;;;;4.85;82.02;99212.69;5070865;28;20196;-78
2022/03/03 02:31:35;;;;;;;15.60;11.60;;;;;;;4.74;82.45;99209.34;5071222;28;20257;-78
2022/03/03 02:34:02;;;;;;;17.23;11.77;;;;;;;4.50;82.67;99171.06;5070943;28;20592;-77
2022/03/03 02:36:30;;;;;;;15.50;11.73;;;;;;;4.81;83.05;99212.72;5071117;28;20196;-78
2022/03/03 02:38:59;;;;;;;16.30;11.43;;;;;;;4.78;83.04;99207.59;5070905;28;20669;-78
2022/03/03 02:41:28;;;;;;;15.27;11.47;;;;;;;4.69;82.92;99216.28;5070205;28;20310;-78
2022/03/03 02:43:55;;;;;;;14.50;12.10;;;;;;;4.65;83.46;99197.44;5070052;28;20188;-76
2022/03/03 02:46:22;;;;;;;16.20;11.67;;;;;;;4.78;82.66;99217.88;5070207;28;20196;-76
2022/03/03 02:48:49;;;;;;;17.23;12.43;;;;;;;4.60;83.10;99204.38;5070215;28;20203;-76
2022/03/03 02:51:16;;;;;;;15.07;11.83;;;;;;;4.61;83.95;99216.34;5070377;28;20208;-84
2022/03/03 02:53:44;;;;;;;15.93;11.97;;;;;;;4.69;83.20;99213.69;5070668;28;20238;-84
2022/03/03 02:56:12;;;;;;;13.93;11.47;;;;;;;4.63;83.98;99213.75;5070432;28;20192;-84
2022/03/03 02:58:39;;;;;;;19.37;12.23;;;;;;;4.51;84.02;99188.19;5071061;28;20200;-83
2022/03/03 03:01:08;;;;;;;16.70;11.87;;;;;;;4.68;83.63;99217.13;5071174;28;20589;-84
2022/03/03 03:03:35;;;;;;;16.60;12.60;;;;;;;4.38;83.34;99165.19;5071949;28;20226;-84
2022/03/03 03:06:02;;;;;;;17.83;12.73;;;;;;;4.46;83.58;99177.94;5079737;28;20193;-85
2022/03/03 03:08:29;;;;;;;15.97;12.37;;;;;;;4.45;83.72;99180.53;5087122;28;20260;-85
2022/03/03 03:10:56;;;;;;;14.30;12.47;;;;;;;4.26;83.28;99156.72;5087036;28;20188;-85
2022/03/03 03:13:24;;;;;;;17.57;11.63;;;;;;;4.56;83.48;99207.81;5075690;28;20607;-84
2022/03/03 03:15:51;;;;;;;14.53;11.40;;;;;;;4.31;83.77;99168.66;5074542;28;20200;-85
2022/03/03 03:18:20;;;;;;;17.20;12.03;;;;;;;4.58;83.91;99211.25;5075786;28;20195;-85
2022/03/03 03:20:49;;;;;;;16.67;11.77;;;;;;;4.50;83.96;99197.63;5075232;28;20588;-84
2022/03/03 03:23:18;;;;;;;14.30;11.83;;;;;;;4.54;84.04;99198.41;5074868;28;20203;-85
2022/03/03 03:25:45;;;;;;;14.10;11.97;;;;;;;4.49;84.52;99200.19;5075422;28;20202;-84
2022/03/03 03:28:14;;;;;;;16.53;13.00;;;;;;;4.22;85.02;99167.88;5075171;28;20666;-84
2022/03/03 03:30:43;;;;;;;15.57;11.80;;;;;;;4.33;85.23;99186.63;5075069;28;20206;-84
2022/03/03 03:33:10;;;;;;;14.37;11.80;;;;;;;4.39;85.12;99202.00;5075178;28;20255;-85
2022/03/03 03:35:37;;;;;;;15.07;11.77;;;;;;;4.41;84.92;99196.81;5075064;28;20196;-86
2022/03/03 03:38:04;;;;;;;14.20;12.23;;;;;;;4.23;84.28;99167.88;5074152;28;20200;-77
2022/03/03 03:40:32;;;;;;;16.33;12.53;;;;;;;4.46;84.27;99202.78;5074196;28;20218;-78
2022/03/03 03:42:59;;;;;;;14.97;11.93;;;;;;;4.51;84.12;99199.31;5073985;28;20198;-78
2022/03/03 03:45:26;;;;;;;14.27;11.67;;;;;;;4.46;84.10;99203.63;5074211;28;20606;-77
2022/03/03 03:47:54;;;;;;;14.97;12.77;;;;;;;4.14;84.62;99162.84;5073591;28;20196;-77
2022/03/03 03:50:21;;;;;;;16.13;11.57;;;;;;;4.14;84.33;99147.41;5073752;28;20643;-77
2022/03/03 03:52:48;;;;;;;12.20;10.87;;;;;;;4.26;83.62;99160.16;5073814;28;20204;-77
2022/03/03 03:55:15;;;;;;;12.90;10.63;;;;;;;4.31;83.11;99170.38;5073459;28;20219;-77
2022/03/03 03:57:42;;;;;;;17.97;10.37;;;;;;;4.17;83.15;99124.28;5073765;28;20584;-78
2022/03/03 04:00:12;;;;;;;16.27;11.47;;;;;;;4.59;82.55;99197.53;5073453;28;20200;-77
2022/03/03 04:02:39;;;;;;;15.30;11.13;;;;;;;4.58;81.70;99200.09;5073711;28;20680;-76
2022/03/03 04:05:08;;;;;;;15.07;10.37;;;;;;;4.46;82.50;99198.50;5073394;28;20220;-77
2022/03/03 04:07:35;;;;;;;14.87;10.37;;;;;;;4.18;82.45;99161.91;5073687;28;20202;-78
2022/03/03 04:10:03;;;;;;;16.17;11.13;;;;;;;4.43;82.81;99195.09;5073151;28;20278;-77
2022/03/03 04:12:30;;;;;;;13.27;10.87;;;;;;;4.29;82.86;99188.38;5073669;28;20214;-77
2022/03/03 04:14:57;;;;;;;12.10;10.80;;;;;;;4.52;82.94;99207.84;5073332;28;20226;-77
2022/03/03 04:17:24;;;;;;;14.33;11.00;;;;;;;4.52;82.60;99205.28;5073261;28;20198;-78
2022/03/03 04:19:54;;;;;;;14.80;11.53;;;;;;;4.47;82.93;99197.63;5073757;28;20660;-77
2022/03/03 04:22:23;;;;;;;15.30;10.83;;;;;;;4.44;82.99;99191.66;5073606;28;20215;-77
2022/03/03 04:24:50;;;;;;;13.17;10.67;;;;;;;4.29;82.94;99161.81;5073477;28;20193;-77
2022/03/03 04:27:17;;;;;;;14.77;11.13;;;;;;;4.60;82.63;99198.38;5071890;28;20200;-78
2022/03/03 04:29:44;;;;;;;17.10;11.83;;;;;;;4.10;82.37;99104.66;5073249;28;20649;-77
2022/03/03 04:32:11;;;;;;;15.53;11.40;;;;;;;4.27;81.83;99146.44;5072708;28;20203;-77
2022/03/03 04:34:38;;;;;;;15.43;11.60;;;;;;;4.54;82.89;99204.41;5073128;28;20223;-77
2022/03/03 04:37:05;;;;;;;18.07;12.20;;;;;;;4.61;83.01;99198.38;5072317;28;20686;-76
2022/03/03 04:39:34;;;;;;;14.87;11.90;;;;;;;4.36;83.21;99159.19;5072775;28;20215;-77
2022/03/03 04:42:01;;;;;;;14.60;12.10;;;;;;;4.33;83.33;99163.50;5072225;28;20227;-77
2022/03/03 04:44:28;;;;;;;16.93;12.73;;;;;;;4.56;82.96;99196.69;5072236;28;20200;-77
2022/03/03 04:46:55;;;;;;;13.27;11.40;;;;;;;4.64;82.85;99197.47;5072626;28;20291;-77
2022/03/03 04:49:22;;;;;;;15.80;11.90;;;;;;;4.64;82.94;99200.03;5072688;28;20543;-77
2022/03/03 04:51:49;;;;;;;22.63;12.03;;;;;;;4.62;83.17;99181.22;5072380;28;20196;-78
2022/03/03 04:54:17;;;;;;;16.70;12.80;;;;;;;4.44;82.99;99161.69;5071857;28;20215;-78
2022/03/03 04:56:45;;;;;;;15.83;12.13;;;;;;;4.54;83.91;99193.28;5067392;28;20227;-79
2022/03/03 04:59:12;;;;;;;15.30;13.13;;;;;;;4.61;83.49;99194.94;5071508;28;20227;-77
2022/03/03 05:01:39;;;;;;;15.33;13.23;;;;;;;4.27;83.61;99143.03;5071074;28;20238;-77
2022/03/03 05:04:06;;;;;;;16.07;12.93;;;;;;;4.64;83.53;99189.75;5070698;28;20226;-80
2022/03/03 05:06:32;;;;;;;19.07;13.83;;;;;;;4.56;84.90;99163.28;5071082;28;20232;-76
2022/03/03 05:08:59;;;;;;;15.67;12.60;;;;;;;4.78;84.57;99200.75;5071573;28;20231;-75
2022/03/03 05:11:26;;;;;;;19.50;13.00;;;;;;;4.80;83.24;99196.44;5071474;28;20226;-76
2022/03/03 05:13:55;;;;;;;15.03;12.13;;;;;;;4.71;82.79;99193.97;5071168;28;20226;-75
2022/03/03 05:16:22;;;;;;;18.17;13.33;;;;;;;4.52;82.82;99159.03;5071527;28;20673;-76
2022/03/03 05:18:49;;;;;;;18.83;12.63;;;;;;;4.60;82.75;99175.25;5070831;28;20228;-79
2022/03/03 05:21:16;;;;;;;17.17;12.57;;;;;;;4.83;82.51;99206.72;5071050;28;20605;-77
2022/03/03 05:23:43;;;;;;;17.17;13.03;;;;;;;4.67;82.97;99184.59;5051382;28;20239;-78
2022/03/03 05:26:10;;;;;;;15.73;12.87;;;;;;;4.79;82.60;99212.75;5064415;28;20195;-76
2022/03/03 05:28:37;;;;;;;15.80;12.70;;;;;;;4.67;82.74;99194.88;5071801;28;20191;-76
2022/03/03 05:31:06;;;;;;;14.57;12.17;;;;;;;4.59;82.64;99191.53;5071364;28;20188;-77
2022/03/03 05:33:34;;;;;;;14.37;12.20;;;;;;;4.80;82.93;99211.03;5071116;28;20203;-76
2022/03/03 05:36:04;;;;;;;21.10;12.43;;;;;;;4.69;82.52;99193.13;5070359;28;20208;-77
2022/03/03 05:38:34;;;;;;;14.90;11.83;;;;;;;4.84;82.32;99213.56;5071111;28;20196;-75
2022/03/03 05:41:03;;;;;;;18.63;12.73;;;;;;;4.85;82.10;99212.69;5070030;28;20220;-76
2022/03/03 05:43:31;;;;;;;14.37;12.33;;;;;;;4.87;82.17;99212.66;5070094;28;20282;-77
2022/03/03 05:45:59;;;;;;;17.57;12.07;;;;;;;4.93;82.24;99212.59;5072563;28;20184;-80
2022/03/03 05:48:27;;;;;;;21.60;13.70;;;;;;;4.93;82.24;99198.03;5079026;28;20665;-83
2022/03/03 05:50:55;;;;;;;17.50;13.00;;;;;;;5.02;82.44;99208.19;5079109;28;20686;-81
2022/03/03 05:53:23;;;;;;;19.30;14.20;;;;;;;5.02;82.56;99204.78;5074513;28;20204;-80
2022/03/03 05:55:52;;;;;;;17.40;13.17;;;;;;;4.98;82.71;99183.38;5071920;28;20220;-80
2022/03/03 05:58:20;;;;;;;16.90;12.70;;;;;;;5.11;82.50;99197.78;5071421;28;20192;-79
2022/03/03 06:00:50;;;;;;;22.73;14.03;;;;;;;5.14;81.43;99199.47;5072920;28;20770;-79
2022/03/03 06:03:19;;;;;;;18.03;13.57;;;;;;;5.00;81.53;99176.50;5071568;28;20196;-80
2022/03/03 06:05:51;;;;;;;19.63;13.47;;;;;;;5.06;81.75;99176.44;5072401;28;20200;-81
2022/03/03 06:08:20;;;;;;;21.37;13.10;;;;;;;5.25;81.29;99207.06;5072529;28;20224;-80
2022/03/03 06:10:51;;;;;;;19.53;13.37;;;;;;;5.32;81.32;99211.25;5072046;28;20590;-79
2022/03/03 06:13:23;;;;;;;16.37;13.00;;;;;;;5.33;80.54;99200.94;5070807;28;20192;-75
2022/03/03 06:15:50;;;;;;;17.20;12.47;;;;;;;5.40;80.37;99204.31;5068576;28;20223;-74
2022/03/03 06:18:20;;;;;;;16.03;12.53;;;;;;;5.38;79.99;99195.75;5068358;28;20561;-77
2022/03/03 06:20:50;;;;;;;17.90;13.60;;;;;;;5.25;79.73;99168.47;5069440;28;20198;-74
2022/03/03 06:23:18;;;;;;;16.67;12.57;;;;;;;5.37;79.59;99178.63;5069143;28;20192;-76
2022/03/03 06:25:45;;;;;;;20.87;14.10;;;;;;;5.70;79.34;99214.19;5069396;28;20219;-75
2022/03/03 06:28:12;;;;;;;18.03;13.80;;;;;;;5.81;78.54;99211.47;5069394;28;20207;-75
2022/03/03 06:30:39;;;;;;;15.57;12.40;;;;;;;5.86;79.38;99214.84;5069611;28;20715;-75
2022/03/03 06:33:06;;;;;;;15.57;12.70;;;;;;;5.98;78.68;99198.38;5069015;28;20285;-76
2022/03/03 06:35:35;;;;;;;18.80;13.23;;;;;;;6.35;77.24;99214.94;5069579;28;20219;-78
2022/03/03 06:38:06;;;;;;;18.20;13.17;;;;;;;6.76;76.30;99210.81;5049410;28;20209;-78
2022/03/03 06:40:33;;;;;;;15.97;12.17;;;;;;;7.25;75.19;99214.13;5060814;28;20582;-73
2022/03/03 06:43:01;;;;;;;18.53;13.47;;;;;;;7.38;73.21;99212.13;5068430;28;20610;-75
2022/03/03 06:45:28;;;;;;;19.10;13.70;;;;;;;7.39;73.52;99211.25;5068886;28;20203;-75
2022/03/03 06:47:56;;;;;;;17.30;13.60;;;;;;;7.28;73.10;99190.84;5068320;28;20188;-75
2022/03/03 06:50:24;;;;;;;18.77;13.77;;;;;;;7.46;73.28;99217.97;5066461;28;20592;-74
2022/03/03 06:52:51;;;;;;;16.93;13.90;;;;;;;7.36;74.22;99213.91;5068063;28;20287;-75
2022/03/03 06:55:22;;;;;;;21.40;14.60;;;;;;;7.41;73.94;99226.72;5067549;28;20628;-76
2022/03/03 06:57:52;;;;;;;27.40;15.47;;;;;;;7.52;74.19;99227.34;5068336;28;20210;-75
2022/03/03 07:00:21;;;;;;;23.13;14.83;;;;;;;7.55;73.95;99222.97;5066092;28;20215;-75
2022/03/03 07:02:48;;;;;;;25.93;15.10;;;;;;;7.45;74.86;99233.53;5068395;28;20195;-75
2022/03/03 07:05:15;;;;;;;22.90;15.37;;;;;;;7.38;74.17;99242.28;5064756;28;20195;-74
2022/03/03 07:07:44;;;;;;;24.73;15.07;;;;;;;7.32;75.18;99232.94;5069115;28;20202;-75
2022/03/03 07:10:12;;;;;;;29.80;14.97;;;;;;;7.46;75.07;99238.66;5069118;28;20196;-77
2022/03/03 07:12:41;;;;;;;29.27;15.47;;;;;;;7.49;75.06;99235.16;5068432;28;20199;-76
2022/03/03 07:15:10;;;;;;;34.80;15.03;;;;;;;7.32;75.95;99227.78;5068375;28;20734;-75
2022/03/03 07:17:46;;;;;;;30.03;15.20;;;;;;;7.20;77.04;99231.44;5066086;28;20677;-75
2022/03/03 07:20:17;;;;;;;26.20;16.10;;;;;;;7.18;76.75;99232.34;5068993;28;20202;-78
2022/03/03 07:22:59;;;;;;;27.07;15.97;;;;;;;7.15;76.71;99235.84;5068721;28;20274;-76
2022/03/03 07:25:37;;;;;;;24.20;15.53;;;;;;;7.14;76.13;99203.16;5068996;28;20188;-74
2022/03/03 07:28:08;;;;;;;37.00;16.03;;;;;;;7.41;77.31;99237.91;5069745;28;20892;-74
2022/03/03 07:30:40;;;;;;;24.70;15.40;;;;;;;7.98;75.60;99230.63;5069083;28;20198;-74
2022/03/03 07:33:09;;;;;;;26.30;15.23;;;;;;;8.40;74.75;99215.00;5067176;28;20200;-75
2022/03/03 07:35:36;;;;;;;31.83;15.80;;;;;;;9.15;72.01;99234.59;5048735;28;20232;-76
2022/03/03 07:38:13;;;;;;;31.47;15.00;;;;;;;9.46;70.98;99230.25;5049736;28;20201;-73
2022/03/03 07:40:41;;;;;;;33.10;15.13;;;;;;;9.76;70.33;99233.69;5056820;28;20664;-74
2022/03/03 07:43:10;;;;;;;50.23;15.63;;;;;;;9.80;68.61;99232.72;5069200;28;20208;-77
2022/03/03 07:45:37;;;;;;;42.47;14.63;;;;;;;9.59;68.45;99222.13;5068973;28;20196;-74
2022/03/03 07:48:05;;;;;;;39.07;14.57;;;;;;;9.72;68.09;99223.44;5069221;28;20196;-73
2022/03/03 07:50:32;;;;;;;39.40;15.43;;;;;;;9.76;68.57;99209.50;5069485;28;20522;-75
2022/03/03 07:52:59;;;;;;;29.30;15.40;;;;;;;9.85;67.99;99224.78;5069459;28;20676;-73
2022/03/03 07:55:26;;;;;;;21.03;13.93;;;;;;;9.83;67.74;99242.09;5069326;28;20275;-73
2022/03/03 07:57:59;;;;;;;17.53;12.70;;;;;;;9.66;67.66;99242.63;5068222;28;20231;-73
2022/03/03 08:00:29;;;;;;;25.73;14.27;;;;;;;9.33;68.04;99236.69;5069212;28;20239;-73
2022/03/03 08:02:59;;;;;;;40.63;14.23;;;;;;;9.29;68.91;99249.75;5071939;28;20219;-73
2022/03/03 08:05:29;;;;;;;32.33;14.43;;;;;;;9.12;69.98;99234.69;5072990;28;20199;-75
2022/03/03 08:07:57;;;;;;;30.03;14.97;;;;;;;9.25;69.72;99243.81;5070415;28;20719;-81
2022/03/03 08:10:27;;;;;;;30.50;14.83;;;;;;;9.13;69.80;99243.31;5072558;28;20231;-82
2022/03/03 08:12:57;;;;;;;26.10;15.40;;;;;;;9.01;70.77;99241.91;5073550;28;20227;-82
2022/03/03 08:15:24;;;;;;;32.33;14.77;;;;;;;8.98;70.99;99247.16;5073020;28;20227;-84
2022/03/03 08:17:53;;;;;;;24.83;14.40;;;;;;;8.78;71.45;99201.09;5073108;28;20227;-83
2022/03/03 08:20:22;;;;;;;26.73;15.47;;;;;;;8.93;71.86;99238.66;5072565;28;20311;-81
2022/03/03 08:22:49;;;;;;;26.50;14.77;;;;;;;8.86;70.86;99237.13;5072738;28;20204;-84
2022/03/03 08:25:17;;;;;;;24.97;16.23;;;;;;;8.99;71.41;99246.25;5072580;28;20202;-81
2022/03/03 08:27:44;;;;;;;31.47;15.73;;;;;;;9.05;71.02;99248.66;5073459;28;20207;-82
2022/03/03 08:30:13;;;;;;;25.13;14.77;;;;;;;8.95;70.95;99237.72;5072983;28;20204;-85
2022/03/03 08:32:41;;;;;;;21.83;14.83;;;;;;;8.78;70.18;99233.88;5073067;28;20196;-81
2022/03/03 08:35:15;;;;;;;28.00;15.73;;;;;;;8.79;70.14;99236.44;5071977;28;20236;-83
2022/03/03 08:37:44;;;;;;;18.53;13.90;;;;;;;8.71;70.57;99233.19;5071318;28;20188;-86
2022/03/03 08:40:14;;;;;;;22.73;14.67;;;;;;;8.53;70.90;99218.13;5072029;28;20196;-83
2022/03/03 08:42:45;;;;;;;21.47;14.70;;;;;;;8.16;70.62;99151.78;5072235;28;20222;-89
2022/03/03 08:45:12;;;;;;;20.00;14.53;;;;;;;8.69;70.53;99235.81;5072621;28;20636;-83
2022/03/03 08:47:42;;;;;;;22.73;13.67;;;;;;;8.57;71.00;99236.16;5072329;28;20207;-80
2022/03/03 08:50:13;;;;;;;23.40;14.87;;;;;;;8.57;71.56;99246.50;5072991;28;20257;-87
2022/03/03 08:52:43;;;;;;;29.73;15.97;;;;;;;8.66;71.40;99241.06;5073270;28;20219;-84
2022/03/03 08:55:12;;;;;;;21.40;14.80;;;;;;;8.36;71.23;99182.34;5072842;28;20310;-83
2022/03/03 08:57:40;;;;;;;30.93;15.70;;;;;;;8.59;71.16;99233.50;5072240;28;20227;-83
2022/03/03 09:00:11;;;;;;;30.60;15.40;;;;;;;8.61;72.00;99245.50;5072196;28;20261;-85
2022/03/03 09:02:40;;;;;;;31.83;16.33;;;;;;;8.60;71.33;99248.97;5070398;28;20723;-80
2022/03/03 09:05:08;;;;;;;24.23;14.40;;;;;;;8.70;70.64;99228.88;5072712;28;20200;-85
2022/03/03 09:07:35;;;;;;;26.90;14.83;;;;;;;8.85;71.62;99251.78;5072585;28;20192;-85
2022/03/03 09:10:04;;;;;;;20.93;13.20;;;;;;;8.92;70.01;99239.53;5071273;28;20196;-82
2022/03/03 09:12:31;;;;;;;21.10;11.50;;;;;;;8.81;69.14;99232.03;5070258;28;20200;-80
2022/03/03 09:14:58;;;;;;;29.17;11.73;;;;;;;9.01;68.42;99247.06;5071351;28;20663;-81
2022/03/03 09:17:25;;;;;;;19.30;10.83;;;;;;;9.22;68.17;99249.06;5072146;28;20668;-85
2022/03/03 09:19:52;;;;;;;23.63;10.93;;;;;;;9.11;67.04;99243.34;5072464;28;20211;-85
2022/03/03 09:22:19;;;;;;;25.00;10.97;;;;;;;9.24;66.99;99244.72;5072497;28;20237;-81
2022/03/03 09:24:46;;;;;;;17.77;10.93;;;;;;;9.30;66.99;99247.13;5072652;28;20218;-84
2022/03/03 09:27:14;;;;;;;16.37;10.93;;;;;;;9.27;67.11;99249.78;5071894;28;20669;-87
2022/03/03 09:29:41;;;;;;;25.77;11.43;;;;;;;9.45;67.34;99249.28;5072368;28;20196;-87
2022/03/03 09:32:09;;;;;;;15.53;10.80;;;;;;;9.50;66.64;99256.06;5072035;28;20196;-86
2022/03/03 09:34:36;;;;;;;16.03;11.03;;;;;;;9.71;66.50;99260.63;5071988;28;20665;-83
2022/03/03 09:37:04;;;;;;;13.97;9.53;;;;;;;9.45;65.29;99212.16;5071257;28;20219;-86
2022/03/03 09:39:31;;;;;;;12.03;9.83;;;;;;;9.46;65.35;99211.28;5071284;28;20191;-85
2022/03/03 09:41:58;;;;;;;12.50;9.80;;;;;;;9.72;65.51;99245.03;5071861;28;20694;-83
2022/03/03 09:44:27;;;;;;;11.57;9.57;;;;;;;9.80;65.57;99260.38;5071520;28;20227;-86
2022/03/03 09:46:55;;;;;;;14.13;10.13;;;;;;;9.76;65.94;99259.59;5071815;28;20199;-85
2022/03/03 09:49:23;;;;;;;20.27;11.33;;;;;;;9.63;66.65;99255.66;5072580;28;20192;-81
2022/03/03 09:51:50;;;;;;;14.33;9.67;;;;;;;9.57;66.75;99239.47;5071474;28;20196;-85
2022/03/03 09:54:17;;;;;;;15.30;9.70;;;;;;;9.52;66.44;99230.97;5070785;28;20202;-85
2022/03/03 09:56:45;;;;;;;13.17;9.33;;;;;;;9.74;66.21;99237.22;5070873;28;20227;-84
2022/03/03 09:59:13;;;;;;;14.90;9.90;;;;;;;9.94;64.98;99268.56;5071525;28;20192;-83
2022/03/03 10:01:42;;;;;;;13.53;9.63;;;;;;;9.94;65.38;99259.94;5072631;28;20199;-86
2022/03/03 10:04:17;;;;;;;15.70;10.30;;;;;;;9.95;65.34;99252.13;5071583;28;20207;-87
2022/03/03 10:06:44;;;;;;;11.80;9.43;;;;;;;9.90;64.81;99253.16;5070808;28;20284;-83
2022/03/03 10:09:12;;;;;;;16.30;10.17;;;;;;;9.61;64.42;99222.91;5070951;28;20196;-84
2022/03/03 10:11:58;;;;;;;15.77;8.43;;;;;;;9.57;64.30;99223.91;5070479;28;20192;-84
2022/03/03 10:14:26;;;;;;;13.90;9.40;;;;;;;9.64;64.23;99231.44;5069480;28;21227;-85
2022/03/03 10:16:55;;;;;;;15.07;8.90;;;;;;;9.62;64.21;99237.56;5068637;28;20212;-83
2022/03/03 10:19:22;;;;;;;16.20;10.20;;;;;;;9.12;64.59;99162.19;5071589;28;20593;-85
2022/03/03 10:21:51;;;;;;;15.07;9.33;;;;;;;9.41;65.11;99214.00;5072244;28;20196;-83
2022/03/03 10:24:21;;;;;;;13.90;8.70;;;;;;;9.72;64.21;99246.75;5070764;28;20200;-86
2022/03/03 10:26:57;;;;;;;12.00;8.97;;;;;;;9.75;64.27;99247.53;5072202;28;20207;-84
2022/03/03 10:29:25;;;;;;;10.33;8.80;;;;;;;9.89;64.20;99248.88;5071493;28;20664;-86
2022/03/03 10:31:53;;;;;;;19.57;9.60;;;;;;;9.78;64.51;99251.78;5072207;28;20508;-85
2022/03/03 10:34:23;;;;;;;20.80;9.43;;;;;;;9.85;63.17;99248.09;5071036;28;20196;-87
2022/03/03 10:36:57;;;;;;;14.83;8.77;;;;;;;9.71;62.77;99220.00;5072214;28;20303;-84
2022/03/03 10:39:24;;;;;;;12.07;8.20;;;;;;;9.75;62.41;99226.81;5071835;28;20580;-85
2022/03/03 10:41:56;;;;;;;8.60;7.63;;;;;;;9.62;60.78;99209.06;5072260;28;20242;-85
2022/03/03 10:44:29;;;;;;;10.40;8.40;;;;;;;9.87;62.28;99235.09;5071783;28;20226;-86
2022/03/03 10:47:03;;;;;;;11.07;9.87;;;;;;;9.88;62.11;99224.69;5071241;28;20195;-85
2022/03/03 10:49:32;;;;;;;15.97;9.60;;;;;;;9.31;62.43;99137.44;5072069;28;20657;-85
2022/03/03 10:52:16;;;;;;;12.27;10.00;;;;;;;9.86;62.55;99226.47;5071869;28;20203;-81
2022/03/03 10:54:54;;;;;;;14.00;9.60;;;;;;;9.59;63.69;99167.72;5071968;28;20667;-83
2022/03/03 10:57:38;;;;;;;18.60;11.53;;;;;;;9.79;64.32;99219.78;5070592;28;20328;-80
2022/03/03 11:00:09;;;;;;;17.00;10.40;;;;;;;9.45;62.70;99209.59;5071187;28;20629;-82
2022/03/03 11:02:37;;;;;;;31.40;13.03;;;;;;;9.40;64.05;99209.69;5070218;28;20191;-82
2022/03/03 11:05:09;;;;;;;18.10;10.87;;;;;;;9.54;63.00;99218.81;5070749;28;20199;-82
2022/03/03 11:07:36;;;;;;;22.00;10.57;;;;;;;9.58;62.82;99212.66;5071415;28;20180;-82
2022/03/03 11:10:05;;;;;;;17.23;10.07;;;;;;;9.62;62.47;99214.25;5070707;28;20199;-81
2022/03/03 11:12:32;;;;;;;15.40;9.40;;;;;;;9.76;61.85;99214.69;5070612;28;20206;-81
2022/03/03 11:15:00;;;;;;;11.67;9.17;;;;;;;9.93;60.96;99222.78;5070350;28;20238;-82
2022/03/03 11:17:28;;;;;;;13.80;9.70;;;;;;;10.05;60.59;99222.41;5070569;28;20220;-81
2022/03/03 11:19:59;;;;;;;16.57;11.53;;;;;;;10.25;61.41;99224.44;5070481;28;20207;-82
2022/03/03 11:22:27;;;;;;;18.07;11.47;;;;;;;10.38;61.29;99222.28;5070598;28;20188;-81
2022/03/03 11:24:58;;;;;;;20.27;10.27;;;;;;;10.31;61.25;99205.22;5069893;28;20196;-76
2022/03/03 11:27:44;;;;;;;18.30;10.77;;;;;;;10.41;60.53;99219.56;5069429;28;20192;-77
2022/03/03 11:30:16;;;;;;;19.83;11.67;;;;;;;10.41;61.19;99220.41;5069405;28;20581;-77
2022/03/03 11:32:44;;;;;;;15.10;10.63;;;;;;;10.50;60.83;99216.66;5069472;28;20257;-78